Terminal Aerodrome Forecast
Issued by NWS Knoxville/Tri Cities, TN

Home | Current Version | Previous Version | Text Only | Print | Product List | Glossary On
Versions: 1 2 3 4 5 6 7 8 9 10 11 12 13 14 15 16 17 18 19 20 21 22 23 24 25 26 27 28 29 30 31 32 33 34 35 36 37 38 39 40 41 42 43 44 45 46 47 48
000
FTUS44 KMRX 241942 AAB
TAFTRI
TAF AMD
KTRI 241942Z 2420/2518 29011G21KT 4SM RA BKN035
     FM242100 29008KT P6SM BKN035
     FM250000 36004KT P6SM SCT050
     FM250800 00000KT 3SM BR BKN250
     FM251000 00000KT 1SM BR BKN250
     FM251200 00000KT 3SM BR BKN250
     FM251400 35004KT P6SM SCT250=

USA.gov is the U.S. government's official web portal to all federal, state and local government web resources and services.